sensor_id;sensor_type;location;lat;lon;timestamp;pressure;altitude;pressure_sealevel;temperature;humidity
47524;BME280;33253;42.144;25.884;2023-03-24T00:02:26;100756.53;;;5.94;100.00
47524;BME280;33253;42.144;25.884;2023-03-24T00:04:53;100756.84;;;5.98;100.00
47524;BME280;33253;42.144;25.884;2023-03-24T00:07:22;100752.94;;;6.05;100.00
47524;BME280;33253;42.144;25.884;2023-03-24T00:09:48;100752.25;;;6.08;100.00
47524;BME280;33253;42.144;25.884;2023-03-24T00:12:14;100733.59;;;6.10;100.00
47524;BME280;33253;42.144;25.884;2023-03-24T00:14:43;100733.97;;;6.17;100.00
47524;BME280;33253;42.144;25.884;2023-03-24T00:17:11;100703.03;;;6.13;100.00
47524;BME280;33253;42.144;25.884;2023-03-24T00:19:42;100737.25;;;6.44;100.00
47524;BME280;33253;42.144;25.884;2023-03-24T00:22:10;100734.59;;;6.42;100.00
47524;BME280;33253;42.144;25.884;2023-03-24T00:24:39;100742.38;;;6.44;100.00
47524;BME280;33253;42.144;25.884;2023-03-24T00:27:05;100752.81;;;6.17;100.00
47524;BME280;33253;42.144;25.884;2023-03-24T00:29:31;100700.31;;;5.82;100.00
47524;BME280;33253;42.144;25.884;2023-03-24T00:31:57;100737.09;;;5.69;100.00
47524;BME280;33253;42.144;25.884;2023-03-24T00:34:24;100723.63;;;5.30;100.00
47524;BME280;33253;42.144;25.884;2023-03-24T00:36:50;100728.13;;;5.34;100.00
47524;BME280;33253;42.144;25.884;2023-03-24T00:39:17;100726.59;;;5.23;100.00
47524;BME280;33253;42.144;25.884;2023-03-24T00:41:44;100713.50;;;5.18;100.00
47524;BME280;33253;42.144;25.884;2023-03-24T00:44:13;100681.84;;;5.02;100.00
47524;BME280;33253;42.144;25.884;2023-03-24T00:46:50;100731.22;;;5.28;100.00
47524;BME280;33253;42.144;25.884;2023-03-24T00:49:20;100732.38;;;5.33;100.00
47524;BME280;33253;42.144;25.884;2023-03-24T00:52:07;100735.13;;;5.37;100.00
47524;BME280;33253;42.144;25.884;2023-03-24T00:54:34;100728.34;;;5.37;100.00
47524;BME280;33253;42.144;25.884;2023-03-24T00:57:00;100713.97;;;5.26;100.00
47524;BME280;33253;42.144;25.884;2023-03-24T00:59:28;100702.19;;;5.14;100.00
47524;BME280;33253;42.144;25.884;2023-03-24T01:01:54;100703.66;;;5.11;100.00
47524;BME280;33253;42.144;25.884;2023-03-24T01:04:21;100706.03;;;5.08;100.00
47524;BME280;33253;42.144;25.884;2023-03-24T01:06:51;100728.91;;;5.33;100.00
47524;BME280;33253;42.144;25.884;2023-03-24T01:09:17;100706.81;;;5.20;100.00
47524;BME280;33253;42.144;25.884;2023-03-24T01:11:46;100725.50;;;5.32;100.00
47524;BME280;33253;42.144;25.884;2023-03-24T01:14:11;100731.88;;;5.39;100.00
47524;BME280;33253;42.144;25.884;2023-03-24T01:16:37;100717.91;;;5.34;100.00
47524;BME280;33253;42.144;25.884;2023-03-24T01:19:03;100714.56;;;5.22;100.00
47524;BME280;33253;42.144;25.884;2023-03-24T01:21:29;100728.28;;;4.95;100.00
47524;BME280;33253;42.144;25.884;2023-03-24T01:23:56;100682.75;;;4.63;100.00
47524;BME280;33253;42.144;25.884;2023-03-24T01:26:22;100690.22;;;4.73;100.00
47524;BME280;33253;42.144;25.884;2023-03-24T01:28:47;100734.41;;;4.84;100.00
47524;BME280;33253;42.144;25.884;2023-03-24T01:31:13;100738.72;;;4.72;100.00
47524;BME280;33253;42.144;25.884;2023-03-24T01:33:38;100729.94;;;4.54;100.00
47524;BME280;33253;42.144;25.884;2023-03-24T01:36:05;100731.59;;;4.41;100.00
47524;BME280;33253;42.144;25.884;2023-03-24T01:38:31;100739.63;;;4.33;100.00
47524;BME280;33253;42.144;25.884;2023-03-24T01:40:57;100677.50;;;4.08;100.00
47524;BME280;33253;42.144;25.884;2023-03-24T01:43:27;100694.84;;;4.00;100.00
47524;BME280;33253;42.144;25.884;2023-03-24T01:46:12;100723.56;;;4.09;100.00
47524;BME280;33253;42.144;25.884;2023-03-24T01:49:05;100722.78;;;3.85;100.00
47524;BME280;33253;42.144;25.884;2023-03-24T01:51:34;100713.50;;;3.73;100.00
47524;BME280;33253;42.144;25.884;2023-03-24T01:54:09;100713.97;;;3.93;100.00
47524;BME280;33253;42.144;25.884;2023-03-24T01:56:40;100711.09;;;4.14;100.00
47524;BME280;33253;42.144;25.884;2023-03-24T01:59:12;100692.00;;;4.09;100.00
47524;BME280;33253;42.144;25.884;2023-03-24T02:01:39;100702.84;;;4.18;100.00
47524;BME280;33253;42.144;25.884;2023-03-24T02:04:06;100704.91;;;4.24;100.00
47524;BME280;33253;42.144;25.884;2023-03-24T02:06:34;100711.53;;;4.33;100.00
47524;BME280;33253;42.144;25.884;2023-03-24T02:09:01;100629.22;;;3.99;100.00
47524;BME280;33253;42.144;25.884;2023-03-24T02:11:30;100697.66;;;4.30;100.00
47524;BME280;33253;42.144;25.884;2023-03-24T02:13:56;100661.34;;;4.09;100.00
47524;BME280;33253;42.144;25.884;2023-03-24T02:33:47;100713.91;;;4.30;100.00
47524;BME280;33253;42.144;25.884;2023-03-24T02:50:12;100732.56;;;3.53;100.00
47524;BME280;33253;42.144;25.884;2023-03-24T02:55:35;100729.88;;;3.64;100.00
47524;BME280;33253;42.144;25.884;2023-03-24T02:58:11;100730.25;;;3.56;100.00
47524;BME280;33253;42.144;25.884;2023-03-24T03:00:56;100701.28;;;2.95;100.00
47524;BME280;33253;42.144;25.884;2023-03-24T03:03:33;100701.19;;;2.70;100.00
47524;BME280;33253;42.144;25.884;2023-03-24T03:06:16;100768.59;;;2.97;100.00
47524;BME280;33253;42.144;25.884;2023-03-24T03:08:44;100768.50;;;2.72;100.00
47524;BME280;33253;42.144;25.884;2023-03-24T03:11:13;100743.44;;;2.66;100.00
47524;BME280;33253;42.144;25.884;2023-03-24T03:13:44;100765.28;;;2.98;100.00
47524;BME280;33253;42.144;25.884;2023-03-24T03:16:17;100768.72;;;3.11;100.00
47524;BME280;33253;42.144;25.884;2023-03-24T03:18:52;100761.38;;;3.27;100.00
47524;BME280;33253;42.144;25.884;2023-03-24T03:21:22;100751.41;;;3.30;100.00
47524;BME280;33253;42.144;25.884;2023-03-24T03:23:53;100742.31;;;3.10;100.00
47524;BME280;33253;42.144;25.884;2023-03-24T03:26:21;100766.13;;;3.22;100.00
47524;BME280;33253;42.144;25.884;2023-03-24T03:28:52;100737.34;;;3.12;100.00
47524;BME280;33253;42.144;25.884;2023-03-24T03:31:32;100781.31;;;3.45;100.00
47524;BME280;33253;42.144;25.884;2023-03-24T03:34:05;100783.06;;;3.58;100.00
47524;BME280;33253;42.144;25.884;2023-03-24T03:36:47;100761.97;;;3.60;100.00
47524;BME280;33253;42.144;25.884;2023-03-24T03:39:43;100776.38;;;3.71;100.00
47524;BME280;33253;42.144;25.884;2023-03-24T03:42:10;100777.16;;;3.59;100.00
47524;BME280;33253;42.144;25.884;2023-03-24T03:44:36;100773.50;;;3.55;100.00
47524;BME280;33253;42.144;25.884;2023-03-24T03:47:02;100762.81;;;3.35;100.00
47524;BME280;33253;42.144;25.884;2023-03-24T03:49:28;100766.72;;;3.18;100.00
47524;BME280;33253;42.144;25.884;2023-03-24T03:51:53;100753.09;;;2.94;100.00
47524;BME280;33253;42.144;25.884;2023-03-24T03:54:20;100743.22;;;2.87;100.00
47524;BME280;33253;42.144;25.884;2023-03-24T03:56:48;100704.97;;;2.75;100.00
47524;BME280;33253;42.144;25.884;2023-03-24T03:59:31;100723.13;;;2.91;100.00
47524;BME280;33253;42.144;25.884;2023-03-24T04:02:07;100694.44;;;2.70;100.00
47524;BME280;33253;42.144;25.884;2023-03-24T04:07:16;100707.84;;;2.56;100.00
47524;BME280;33253;42.144;25.884;2023-03-24T04:10:17;100720.25;;;2.75;100.00
47524;BME280;33253;42.144;25.884;2023-03-24T04:31:31;100750.41;;;3.04;100.00
47524;BME280;33253;42.144;25.884;2023-03-24T04:34:11;100729.47;;;2.85;100.00
47524;BME280;33253;42.144;25.884;2023-03-24T04:39:15;100656.00;;;2.67;100.00
47524;BME280;33253;42.144;25.884;2023-03-24T04:41:43;100749.97;;;3.22;100.00
47524;BME280;33253;42.144;25.884;2023-03-24T04:44:10;100730.75;;;3.15;100.00
47524;BME280;33253;42.144;25.884;2023-03-24T04:46:37;100739.94;;;3.25;100.00
47524;BME280;33253;42.144;25.884;2023-03-24T04:49:03;100744.50;;;3.29;100.00
47524;BME280;33253;42.144;25.884;2023-03-24T04:51:30;100707.84;;;3.03;100.00
47524;BME280;33253;42.144;25.884;2023-03-24T04:53:55;100732.09;;;3.10;100.00
47524;BME280;33253;42.144;25.884;2023-03-24T04:59:19;100734.56;;;3.08;100.00
47524;BME280;33253;42.144;25.884;2023-03-24T05:01:45;100714.41;;;2.88;100.00
47524;BME280;33253;42.144;25.884;2023-03-24T05:04:15;100765.94;;;3.19;100.00
47524;BME280;33253;42.144;25.884;2023-03-24T05:06:40;100759.81;;;3.29;100.00
47524;BME280;33253;42.144;25.884;2023-03-24T05:09:06;100762.69;;;3.34;100.00
47524;BME280;33253;42.144;25.884;2023-03-24T05:11:32;100763.00;;;3.38;100.00
47524;BME280;33253;42.144;25.884;2023-03-24T05:13:57;100766.66;;;3.42;100.00
47524;BME280;33253;42.144;25.884;2023-03-24T05:16:23;100762.88;;;3.49;100.00
47524;BME280;33253;42.144;25.884;2023-03-24T05:18:48;100758.44;;;3.46;100.00
47524;BME280;33253;42.144;25.884;2023-03-24T05:21:13;100762.44;;;3.54;100.00
47524;BME280;33253;42.144;25.884;2023-03-24T05:23:39;100768.72;;;3.71;100.00
47524;BME280;33253;42.144;25.884;2023-03-24T05:26:05;100772.00;;;3.82;100.00
47524;BME280;33253;42.144;25.884;2023-03-24T05:28:31;100768.56;;;3.82;100.00
47524;BME280;33253;42.144;25.884;2023-03-24T05:30:58;100785.09;;;3.87;100.00
47524;BME280;33253;42.144;25.884;2023-03-24T05:33:26;100790.72;;;3.95;100.00
47524;BME280;33253;42.144;25.884;2023-03-24T05:35:52;100790.19;;;3.87;100.00
47524;BME280;33253;42.144;25.884;2023-03-24T05:38:17;100788.00;;;3.80;100.00
47524;BME280;33253;42.144;25.884;2023-03-24T05:40:43;100796.66;;;3.82;100.00
47524;BME280;33253;42.144;25.884;2023-03-24T05:43:08;100765.75;;;3.53;100.00
47524;BME280;33253;42.144;25.884;2023-03-24T05:45:37;100799.91;;;3.67;100.00
47524;BME280;33253;42.144;25.884;2023-03-24T05:48:02;100801.81;;;3.58;100.00
47524;BME280;33253;42.144;25.884;2023-03-24T05:50:28;100807.03;;;3.60;100.00
47524;BME280;33253;42.144;25.884;2023-03-24T05:52:53;100781.41;;;3.46;100.00
47524;BME280;33253;42.144;25.884;2023-03-24T05:55:19;100814.53;;;3.70;100.00
47524;BME280;33253;42.144;25.884;2023-03-24T05:57:46;100818.34;;;3.63;100.00
47524;BME280;33253;42.144;25.884;2023-03-24T06:00:12;100830.72;;;3.45;100.00
47524;BME280;33253;42.144;25.884;2023-03-24T06:02:42;100786.13;;;2.92;100.00
47524;BME280;33253;42.144;25.884;2023-03-24T06:05:09;100818.31;;;3.14;100.00
47524;BME280;33253;42.144;25.884;2023-03-24T06:07:37;100814.53;;;3.33;100.00
47524;BME280;33253;42.144;25.884;2023-03-24T06:10:04;100812.84;;;3.45;100.00
47524;BME280;33253;42.144;25.884;2023-03-24T06:12:32;100811.84;;;3.31;100.00
47524;BME280;33253;42.144;25.884;2023-03-24T06:14:58;100826.59;;;3.47;100.00
47524;BME280;33253;42.144;25.884;2023-03-24T06:17:25;100785.00;;;3.24;100.00
47524;BME280;33253;42.144;25.884;2023-03-24T06:19:53;100824.59;;;3.31;100.00
47524;BME280;33253;42.144;25.884;2023-03-24T06:22:19;100828.16;;;3.33;100.00
47524;BME280;33253;42.144;25.884;2023-03-24T06:24:45;100830.25;;;3.51;100.00
47524;BME280;33253;42.144;25.884;2023-03-24T06:27:14;100829.66;;;3.67;100.00
47524;BME280;33253;42.144;25.884;2023-03-24T06:29:40;100839.28;;;3.83;100.00
47524;BME280;33253;42.144;25.884;2023-03-24T06:32:09;100836.00;;;3.97;100.00
47524;BME280;33253;42.144;25.884;2023-03-24T06:34:35;100831.28;;;3.90;100.00
47524;BME280;33253;42.144;25.884;2023-03-24T06:37:02;100848.41;;;4.16;100.00
47524;BME280;33253;42.144;25.884;2023-03-24T06:39:27;100840.25;;;4.22;100.00
47524;BME280;33253;42.144;25.884;2023-03-24T06:41:53;100839.72;;;4.26;100.00
47524;BME280;33253;42.144;25.884;2023-03-24T06:44:18;100847.41;;;4.40;100.00
47524;BME280;33253;42.144;25.884;2023-03-24T06:46:43;100836.88;;;4.60;100.00
47524;BME280;33253;42.144;25.884;2023-03-24T06:49:10;100838.47;;;4.72;100.00
47524;BME280;33253;42.144;25.884;2023-03-24T06:51:35;100837.41;;;4.81;100.00
47524;BME280;33253;42.144;25.884;2023-03-24T06:54:01;100831.09;;;4.90;100.00
47524;BME280;33253;42.144;25.884;2023-03-24T06:56:27;100836.25;;;5.03;100.00
47524;BME280;33253;42.144;25.884;2023-03-24T06:58:53;100834.16;;;5.11;100.00
47524;BME280;33253;42.144;25.884;2023-03-24T07:01:18;100826.81;;;5.15;100.00
47524;BME280;33253;42.144;25.884;2023-03-24T07:03:44;100843.66;;;5.25;100.00
47524;BME280;33253;42.144;25.884;2023-03-24T07:06:10;100799.56;;;5.16;100.00
47524;BME280;33253;42.144;25.884;2023-03-24T07:08:35;100845.59;;;5.43;100.00
47524;BME280;33253;42.144;25.884;2023-03-24T07:11:02;100845.38;;;5.53;100.00
47524;BME280;33253;42.144;25.884;2023-03-24T07:13:28;100839.69;;;5.57;100.00
47524;BME280;33253;42.144;25.884;2023-03-24T07:16:13;100834.38;;;5.54;100.00
47524;BME280;33253;42.144;25.884;2023-03-24T07:18:39;100830.84;;;5.52;100.00
47524;BME280;33253;42.144;25.884;2023-03-24T07:21:04;100836.03;;;5.67;100.00
47524;BME280;33253;42.144;25.884;2023-03-24T07:23:30;100822.06;;;5.48;100.00
47524;BME280;33253;42.144;25.884;2023-03-24T07:25:57;100834.97;;;5.37;100.00
47524;BME280;33253;42.144;25.884;2023-03-24T07:28:23;100841.25;;;5.55;100.00
47524;BME280;33253;42.144;25.884;2023-03-24T07:30:48;100839.31;;;5.51;100.00
47524;BME280;33253;42.144;25.884;2023-03-24T07:33:14;100814.41;;;5.48;100.00
47524;BME280;33253;42.144;25.884;2023-03-24T07:35:39;100821.16;;;5.61;100.00
47524;BME280;33253;42.144;25.884;2023-03-24T07:38:06;100807.53;;;5.76;100.00
47524;BME280;33253;42.144;25.884;2023-03-24T07:40:32;100820.28;;;6.03;100.00
47524;BME280;33253;42.144;25.884;2023-03-24T07:43:00;100814.84;;;6.11;100.00
47524;BME280;33253;42.144;25.884;2023-03-24T07:45:26;100771.97;;;5.95;100.00
47524;BME280;33253;42.144;25.884;2023-03-24T07:47:52;100778.34;;;6.15;100.00
47524;BME280;33253;42.144;25.884;2023-03-24T07:50:18;100752.66;;;6.01;100.00
47524;BME280;33253;42.144;25.884;2023-03-24T07:52:48;100797.84;;;6.27;100.00
47524;BME280;33253;42.144;25.884;2023-03-24T07:55:13;100808.63;;;6.51;100.00
47524;BME280;33253;42.144;25.884;2023-03-24T07:57:46;100797.03;;;6.58;100.00
47524;BME280;33253;42.144;25.884;2023-03-24T08:00:13;100800.44;;;6.57;100.00
47524;BME280;33253;42.144;25.884;2023-03-24T08:02:46;100794.59;;;6.59;100.00
47524;BME280;33253;42.144;25.884;2023-03-24T08:05:12;100796.38;;;6.75;100.00
47524;BME280;33253;42.144;25.884;2023-03-24T08:07:42;100787.69;;;6.88;100.00
47524;BME280;33253;42.144;25.884;2023-03-24T08:10:11;100799.88;;;7.07;100.00
47524;BME280;33253;42.144;25.884;2023-03-24T08:12:38;100798.25;;;7.24;100.00
47524;BME280;33253;42.144;25.884;2023-03-24T08:15:05;100796.91;;;7.31;100.00
47524;BME280;33253;42.144;25.884;2023-03-24T08:17:32;100795.47;;;7.36;100.00
47524;BME280;33253;42.144;25.884;2023-03-24T08:19:57;100789.19;;;7.31;100.00
47524;BME280;33253;42.144;25.884;2023-03-24T08:22:23;100793.81;;;7.53;100.00
47524;BME280;33253;42.144;25.884;2023-03-24T08:24:48;100791.75;;;7.63;100.00
47524;BME280;33253;42.144;25.884;2023-03-24T08:27:14;100709.03;;;7.37;100.00
47524;BME280;33253;42.144;25.884;2023-03-24T08:29:41;100775.38;;;7.93;100.00
47524;BME280;33253;42.144;25.884;2023-03-24T08:32:06;100735.38;;;7.99;100.00
47524;BME280;33253;42.144;25.884;2023-03-24T08:34:33;100769.88;;;8.37;100.00
47524;BME280;33253;42.144;25.884;2023-03-24T08:36:58;100764.72;;;8.53;100.00
47524;BME280;33253;42.144;25.884;2023-03-24T08:39:23;100771.59;;;8.71;100.00
47524;BME280;33253;42.144;25.884;2023-03-24T08:41:49;100766.47;;;8.89;100.00
47524;BME280;33253;42.144;25.884;2023-03-24T08:44:15;100767.50;;;9.11;100.00
47524;BME280;33253;42.144;25.884;2023-03-24T08:46:41;100761.31;;;9.25;100.00
47524;BME280;33253;42.144;25.884;2023-03-24T08:49:07;100754.97;;;9.36;100.00
47524;BME280;33253;42.144;25.884;2023-03-24T08:51:32;100754.41;;;9.62;100.00
47524;BME280;33253;42.144;25.884;2023-03-24T08:53:59;100742.06;;;9.74;100.00
47524;BME280;33253;42.144;25.884;2023-03-24T08:56:25;100754.28;;;9.98;100.00
47524;BME280;33253;42.144;25.884;2023-03-24T08:58:51;100751.69;;;10.17;100.00
47524;BME280;33253;42.144;25.884;2023-03-24T09:01:21;100749.03;;;10.35;100.00
47524;BME280;33253;42.144;25.884;2023-03-24T09:03:47;100747.16;;;10.52;100.00
47524;BME280;33253;42.144;25.884;2023-03-24T09:06:13;100742.91;;;10.74;100.00
47524;BME280;33253;42.144;25.884;2023-03-24T09:08:39;100727.81;;;10.85;100.00
47524;BME280;33253;42.144;25.884;2023-03-24T09:11:05;100739.78;;;11.04;100.00
47524;BME280;33253;42.144;25.884;2023-03-24T09:13:31;100740.34;;;11.20;100.00
47524;BME280;33253;42.144;25.884;2023-03-24T09:15:59;100731.44;;;11.34;100.00
47524;BME280;33253;42.144;25.884;2023-03-24T09:18:25;100709.88;;;11.33;100.00
47524;BME280;33253;42.144;25.884;2023-03-24T09:20:50;100724.94;;;11.68;100.00
47524;BME280;33253;42.144;25.884;2023-03-24T09:23:17;100684.16;;;11.61;100.00
47524;BME280;33253;42.144;25.884;2023-03-24T09:25:42;100700.56;;;11.86;100.00
47524;BME280;33253;42.144;25.884;2023-03-24T09:28:08;100691.63;;;12.00;100.00
47524;BME280;33253;42.144;25.884;2023-03-24T09:30:34;100717.59;;;12.29;100.00
47524;BME280;33253;42.144;25.884;2023-03-24T09:32:59;100722.63;;;12.50;100.00
47524;BME280;33253;42.144;25.884;2023-03-24T09:35:26;100707.50;;;12.62;100.00
47524;BME280;33253;42.144;25.884;2023-03-24T09:37:53;100713.00;;;12.73;100.00
47524;BME280;33253;42.144;25.884;2023-03-24T09:40:30;100670.63;;;12.71;100.00
47524;BME280;33253;42.144;25.884;2023-03-24T09:43:00;100716.69;;;13.09;100.00
47524;BME280;33253;42.144;25.884;2023-03-24T09:45:29;100712.81;;;13.23;100.00
47524;BME280;33253;42.144;25.884;2023-03-24T09:47:59;100694.19;;;13.37;100.00
47524;BME280;33253;42.144;25.884;2023-03-24T09:50:33;100701.84;;;13.61;100.00
47524;BME280;33253;42.144;25.884;2023-03-24T09:53:06;100709.38;;;13.84;100.00
47524;BME280;33253;42.144;25.884;2023-03-24T09:55:33;100704.41;;;13.93;100.00
47524;BME280;33253;42.144;25.884;2023-03-24T09:58:04;100698.88;;;14.13;100.00
47524;BME280;33253;42.144;25.884;2023-03-24T10:00:33;100699.03;;;14.19;100.00
47524;BME280;33253;42.144;25.884;2023-03-24T10:03:19;100695.28;;;14.41;100.00
47524;BME280;33253;42.144;25.884;2023-03-24T10:05:59;100700.91;;;14.58;100.00
47524;BME280;33253;42.144;25.884;2023-03-24T10:22:34;100673.25;;;15.40;98.72
47524;BME280;33253;42.144;25.884;2023-03-24T10:25:15;100664.97;;;15.59;98.47
47524;BME280;33253;42.144;25.884;2023-03-24T10:27:50;100624.06;;;15.52;94.60
47524;BME280;33253;42.144;25.884;2023-03-24T10:30:22;100657.72;;;15.87;96.72
47524;BME280;33253;42.144;25.884;2023-03-24T10:32:49;100660.72;;;16.09;94.21
47524;BME280;33253;42.144;25.884;2023-03-24T10:35:18;100657.34;;;16.14;90.75
47524;BME280;33253;42.144;25.884;2023-03-24T10:37:45;100643.28;;;16.06;89.02
47524;BME280;33253;42.144;25.884;2023-03-24T10:40:18;100657.19;;;16.07;90.01
47524;BME280;33253;42.144;25.884;2023-03-24T10:42:46;100660.75;;;16.12;88.19
47524;BME280;33253;42.144;25.884;2023-03-24T10:45:15;100637.19;;;16.04;85.36
47524;BME280;33253;42.144;25.884;2023-03-24T10:47:44;100647.09;;;16.25;85.47
47524;BME280;33253;42.144;25.884;2023-03-24T10:50:11;100642.91;;;16.35;83.76
47524;BME280;33253;42.144;25.884;2023-03-24T10:52:42;100639.69;;;16.50;83.50
47524;BME280;33253;42.144;25.884;2023-03-24T10:55:14;100642.50;;;16.67;84.98
47524;BME280;33253;42.144;25.884;2023-03-24T10:57:48;100629.66;;;16.79;83.86
47524;BME280;33253;42.144;25.884;2023-03-24T11:00:35;100631.78;;;17.04;83.70
47524;BME280;33253;42.144;25.884;2023-03-24T11:03:10;100620.66;;;17.19;85.86
47524;BME280;33253;42.144;25.884;2023-03-24T11:05:37;100626.75;;;17.21;83.58
47524;BME280;33253;42.144;25.884;2023-03-24T11:10:54;100615.69;;;17.42;82.66
47524;BME280;33253;42.144;25.884;2023-03-24T11:16:13;100595.97;;;17.70;81.04
47524;BME280;33253;42.144;25.884;2023-03-24T11:19:01;100605.75;;;17.91;81.43
47524;BME280;33253;42.144;25.884;2023-03-24T11:21:29;100598.84;;;17.95;81.74
47524;BME280;33253;42.144;25.884;2023-03-24T11:24:17;100592.88;;;18.10;79.17
47524;BME280;33253;42.144;25.884;2023-03-24T11:27:03;100590.34;;;18.24;76.41
47524;BME280;33253;42.144;25.884;2023-03-24T11:29:30;100572.78;;;18.01;72.79
47524;BME280;33253;42.144;25.884;2023-03-24T11:32:01;100559.63;;;17.92;72.85
47524;BME280;33253;42.144;25.884;2023-03-24T11:34:30;100571.13;;;18.14;73.17
47524;BME280;33253;42.144;25.884;2023-03-24T11:39:32;100556.50;;;18.39;74.25
47524;BME280;33253;42.144;25.884;2023-03-24T11:42:13;100548.66;;;18.41;70.44
47524;BME280;33253;42.144;25.884;2023-03-24T11:44:48;100545.97;;;18.29;62.86
47524;BME280;33253;42.144;25.884;2023-03-24T11:47:26;100544.25;;;18.32;61.26
47524;BME280;33253;42.144;25.884;2023-03-24T11:55:14;100523.44;;;18.49;52.02
47524;BME280;33253;42.144;25.884;2023-03-24T12:00:54;100486.84;;;18.52;56.94
47524;BME280;33253;42.144;25.884;2023-03-24T12:11:32;100495.78;;;18.99;53.94
47524;BME280;33253;42.144;25.884;2023-03-24T12:14:04;100504.47;;;18.95;57.74
47524;BME280;33253;42.144;25.884;2023-03-24T12:16:53;100498.31;;;18.87;52.49
47524;BME280;33253;42.144;25.884;2023-03-24T12:39:03;100468.78;;;19.54;50.93
47524;BME280;33253;42.144;25.884;2023-03-24T12:55:19;100434.75;;;19.92;50.37
47524;BME280;33253;42.144;25.884;2023-03-24T12:57:58;100434.75;;;19.88;47.60
47524;BME280;33253;42.144;25.884;2023-03-24T13:00:30;100426.91;;;19.90;49.11
47524;BME280;33253;42.144;25.884;2023-03-24T13:03:13;100430.38;;;19.89;47.35
47524;BME280;33253;42.144;25.884;2023-03-24T13:05:52;100419.94;;;19.56;47.64
47524;BME280;33253;42.144;25.884;2023-03-24T13:08:23;100407.72;;;19.42;48.96
47524;BME280;33253;42.144;25.884;2023-03-24T13:10:56;100431.28;;;19.37;48.44
47524;BME280;33253;42.144;25.884;2023-03-24T13:13:37;100423.44;;;19.54;46.71
47524;BME280;33253;42.144;25.884;2023-03-24T13:16:08;100425.16;;;19.50;47.91
47524;BME280;33253;42.144;25.884;2023-03-24T13:18:41;100409.44;;;19.49;48.96
47524;BME280;33253;42.144;25.884;2023-03-24T13:21:14;100420.78;;;19.62;50.11
47524;BME280;33253;42.144;25.884;2023-03-24T13:29:32;100414.69;;;19.30;48.91
47524;BME280;33253;42.144;25.884;2023-03-24T13:37:25;100396.34;;;19.60;51.58
47524;BME280;33253;42.144;25.884;2023-03-24T13:39:57;100374.53;;;19.47;49.47
47524;BME280;33253;42.144;25.884;2023-03-24T13:42:32;100382.38;;;19.61;51.08
47524;BME280;33253;42.144;25.884;2023-03-24T13:45:00;100393.75;;;19.39;47.25
47524;BME280;33253;42.144;25.884;2023-03-24T13:47:47;100392.88;;;19.31;47.94
47524;BME280;33253;42.144;25.884;2023-03-24T13:50:14;100391.13;;;19.35;49.38
47524;BME280;33253;42.144;25.884;2023-03-24T13:52:47;100390.25;;;19.47;49.14
47524;BME280;33253;42.144;25.884;2023-03-24T13:55:20;100379.78;;;19.53;48.77
47524;BME280;33253;42.144;25.884;2023-03-24T13:57:59;100377.13;;;19.65;48.34
47524;BME280;33253;42.144;25.884;2023-03-24T14:00:29;100380.63;;;19.70;49.32
47524;BME280;33253;42.144;25.884;2023-03-24T14:03:12;100373.66;;;19.62;45.54
47524;BME280;33253;42.144;25.884;2023-03-24T14:13:03;100365.84;;;19.15;47.64
47524;BME280;33253;42.144;25.884;2023-03-24T14:15:56;100363.22;;;18.90;47.09
47524;BME280;33253;42.144;25.884;2023-03-24T14:26:14;100321.28;;;18.69;47.46
47524;BME280;33253;42.144;25.884;2023-03-24T14:28:54;100349.25;;;19.02;47.25
47524;BME280;33253;42.144;25.884;2023-03-24T14:31:26;100357.97;;;19.01;46.84
47524;BME280;33253;42.144;25.884;2023-03-24T14:36:27;100339.66;;;19.01;49.59
47524;BME280;33253;42.144;25.884;2023-03-24T14:38:55;100335.31;;;19.02;49.91
47524;BME280;33253;42.144;25.884;2023-03-24T14:41:29;100321.34;;;19.04;49.09
47524;BME280;33253;42.144;25.884;2023-03-24T14:44:03;100330.09;;;19.08;47.47
47524;BME280;33253;42.144;25.884;2023-03-24T14:46:44;100327.47;;;19.08;46.56
47524;BME280;33253;42.144;25.884;2023-03-24T14:49:28;100330.09;;;19.08;46.77
47524;BME280;33253;42.144;25.884;2023-03-24T14:55:19;100318.75;;;19.03;48.79
47524;BME280;33253;42.144;25.884;2023-03-24T14:57:47;100289.06;;;18.67;48.42
47524;BME280;33253;42.144;25.884;2023-03-24T15:00:22;100276.84;;;18.55;48.80
47524;BME280;33253;42.144;25.884;2023-03-24T15:02:55;100317.84;;;18.88;48.52
47524;BME280;33253;42.144;25.884;2023-03-24T15:05:30;100281.22;;;18.54;48.47
47524;BME280;33253;42.144;25.884;2023-03-24T15:10:24;100293.41;;;18.80;49.09
47524;BME280;33253;42.144;25.884;2023-03-24T15:12:49;100308.22;;;18.69;50.43
47524;BME280;33253;42.144;25.884;2023-03-24T15:15:18;100302.97;;;18.46;50.79
47524;BME280;33253;42.144;25.884;2023-03-24T15:17:46;100307.38;;;18.61;49.75
47524;BME280;33253;42.144;25.884;2023-03-24T15:20:26;100272.44;;;18.27;51.95
47524;BME280;33253;42.144;25.884;2023-03-24T15:22:52;100296.00;;;18.48;49.85
47524;BME280;33253;42.144;25.884;2023-03-24T15:25:24;100291.66;;;18.48;51.10
47524;BME280;33253;42.144;25.884;2023-03-24T15:27:51;100279.41;;;18.22;51.52
47524;BME280;33253;42.144;25.884;2023-03-24T15:30:16;100288.13;;;18.24;50.81
47524;BME280;33253;42.144;25.884;2023-03-24T15:32:43;100293.31;;;18.15;50.76
47524;BME280;33253;42.144;25.884;2023-03-24T15:35:19;100267.09;;;17.93;51.08
47524;BME280;33253;42.144;25.884;2023-03-24T15:37:52;100260.19;;;18.05;51.05
47524;BME280;33253;42.144;25.884;2023-03-24T15:42:50;100283.75;;;18.34;50.74